This is the latest recevied weather packets stored in our database for station/object SP4LIN-15. If no packets are shown the sender has not sent any weather packets the latest 10 day(s).
| Time | Temp. | Humidity | Pressure | Rain* | Wind** | Luminosity | Snow |
|---|---|---|---|---|---|---|---|
| 1778162939 | 10.56° C | 72% | 1006.9 hPa | 0 mm | - | - | - |
| 1778162055 | 10° C | 75% | 1007.1 hPa | 0 mm | - | - | - |
| 1778161139 | 10° C | 74% | 1007.1 hPa | 0 mm | - | - | - |
| 1778160239 | 10.56° C | 72% | 1006.8 hPa | 0 mm | - | - | - |
| 1778159339 | 11.11° C | 73% | 1006.5 hPa | 0 mm | - | - | - |
| 1778158439 | 11.11° C | 73% | 1006.5 hPa | 0 mm | - | - | - |
| 1778157539 | 11.11° C | 73% | 1006.4 hPa | 0 mm | - | - | - |
| 1778156639 | 11.11° C | 74% | 1006.1 hPa | 0 mm | - | - | - |
| 1778155739 | 10° C | 77% | 1006.1 hPa | 0 mm | - | - | - |
| 1778154839 | 9.44° C | 79% | 1006.3 hPa | 0 mm | - | - | - |
| 1778153939 | 8.89° C | 79% | 1006.2 hPa | 0 mm | - | - | - |
| 1778153039 | 8.89° C | 80% | 1006.1 hPa | 0 mm | - | - | - |
| 1778152139 | 8.89° C | 80% | 1005.9 hPa | 0 mm | - | - | - |
| 1778151239 | 8.89° C | 80% | 1005.7 hPa | 0 mm | - | - | - |
| 1778150339 | 8.89° C | 79% | 1005.6 hPa | 0 mm | - | - | - |
| 1778149439 | 9.44° C | 80% | 1005.4 hPa | 0 mm | - | - | - |
| 1778148539 | 8.89° C | 82% | 1005.2 hPa | 0 mm | - | - | - |
| 1778147639 | 8.33° C | 83% | 1005.2 hPa | 0 mm | - | - | - |
| 1778146739 | 7.78° C | 83% | 1005.1 hPa | 0 mm | - | - | - |
| 1778145839 | 8.33° C | 83% | 1005.1 hPa | 0 mm | - | - | - |
| 1778144939 | 7.78° C | 84% | 1004.8 hPa | 0 mm | - | - | - |
| 1778144039 | 7.78° C | 83% | 1004.5 hPa | 0 mm | - | - | - |
| 1778143139 | 8.33° C | 83% | 1004.2 hPa | 0 mm | - | - | - |
| 1778142239 | 8.33° C | 83% | 1004 hPa | 0 mm | - | - | - |
| 1778141340 | 7.78° C | 84% | 1003.9 hPa | 0 mm | - | - | - |
* Rain latest hour (hover to see other rain measurements)
** Current wind speed in m/s (hover to see current wind gust speed)